createdAt,value
2018-12-11T00:08:59.783Z,39
2018-12-11T00:19:03.186Z,38
2018-12-11T00:29:06.605Z,38
2018-12-11T00:39:10.051Z,39
2018-12-11T00:49:13.476Z,38
2018-12-11T00:59:16.899Z,39
2018-12-11T01:09:20.288Z,39
2018-12-11T01:19:23.726Z,38
2018-12-11T01:29:27.133Z,38
2018-12-11T01:39:30.563Z,39
2018-12-11T01:49:33.979Z,39
2018-12-11T01:59:37.414Z,38
2018-12-11T02:09:40.838Z,39
2018-12-11T02:19:44.255Z,39
2018-12-11T02:29:47.690Z,39
2018-12-11T02:39:51.148Z,39
2018-12-11T02:49:54.600Z,38
2018-12-11T02:59:58.065Z,38
2018-12-11T03:10:01.503Z,39
2018-12-11T03:20:04.956Z,39
2018-12-11T03:30:08.398Z,38
2018-12-11T03:40:11.825Z,39
2018-12-11T03:50:15.255Z,39
2018-12-11T04:00:18.714Z,39
2018-12-11T04:10:22.134Z,40
2018-12-11T04:20:25.569Z,42
2018-12-11T04:30:28.976Z,40
2018-12-11T04:40:32.374Z,39
2018-12-11T04:50:35.776Z,40
2018-12-11T05:00:39.197Z,40
2018-12-11T05:10:42.643Z,39
2018-12-11T05:20:46.055Z,40
2018-12-11T05:30:49.456Z,40
2018-12-11T05:40:52.869Z,40
2018-12-11T05:50:56.312Z,42
2018-12-11T06:00:59.748Z,44
2018-12-11T06:11:03.161Z,47
2018-12-11T06:21:06.592Z,45
2018-12-11T06:31:10.015Z,44
2018-12-11T06:41:13.440Z,42
2018-12-11T06:51:16.847Z,42
2018-12-11T07:01:20.279Z,44
2018-12-11T07:11:23.724Z,44
2018-12-11T07:21:27.137Z,44
2018-12-11T07:31:30.527Z,43
2018-12-11T07:41:33.927Z,44
2018-12-11T07:51:37.422Z,44
2018-12-11T08:01:40.836Z,43
2018-12-11T08:11:44.244Z,41
2018-12-11T08:21:47.652Z,42
2018-12-11T08:31:51.077Z,41
2018-12-11T08:41:54.509Z,40
2018-12-11T08:51:57.929Z,41
2018-12-11T09:02:01.360Z,40
2018-12-11T09:12:04.796Z,40
2018-12-11T09:22:08.195Z,41
2018-12-11T09:32:11.580Z,41
2018-12-11T09:42:15.010Z,41
2018-12-11T09:52:18.428Z,41
2018-12-11T10:02:21.888Z,40
2018-12-11T10:12:25.308Z,41
2018-12-11T10:24:41.703Z,41
2018-12-11T10:34:45.115Z,41
2018-12-11T10:44:48.549Z,41
2018-12-11T10:54:51.963Z,41
2018-12-11T11:04:55.394Z,39
2018-12-11T11:14:58.961Z,40
2018-12-11T11:25:02.426Z,39
2018-12-11T11:35:05.861Z,40
2018-12-11T11:45:09.284Z,39
2018-12-11T11:55:12.805Z,39
2018-12-11T12:05:16.245Z,38
2018-12-11T12:15:19.640Z,39
2018-12-11T12:25:23.036Z,39
2018-12-11T12:35:26.445Z,38
2018-12-11T12:45:29.859Z,39
2018-12-11T12:55:33.283Z,38
2018-12-11T13:05:36.706Z,38
2018-12-11T13:15:40.247Z,39
2018-12-11T13:25:43.676Z,39
2018-12-11T13:35:47.150Z,39
2018-12-11T13:45:50.707Z,40
2018-12-11T13:55:54.224Z,39
2018-12-11T14:05:57.696Z,38
2018-12-11T14:16:01.117Z,38
2018-12-11T14:26:04.555Z,40
2018-12-11T14:36:07.949Z,39
2018-12-11T14:46:11.356Z,40
2018-12-11T14:56:14.774Z,40
2018-12-11T15:06:18.214Z,41
2018-12-11T15:16:21.652Z,41
2018-12-11T15:26:25.067Z,41
2018-12-11T15:36:28.504Z,42
2018-12-11T15:46:31.929Z,41
2018-12-11T15:56:35.331Z,40
2018-12-11T16:06:38.773Z,44
2018-12-11T16:16:42.193Z,43
2018-12-11T16:26:45.617Z,44
2018-12-11T16:36:49.004Z,47
2018-12-11T16:46:52.428Z,46
2018-12-11T16:56:55.848Z,48
2018-12-11T17:06:59.254Z,52
2018-12-11T17:17:02.662Z,49
2018-12-11T17:27:06.084Z,48
2018-12-11T17:37:09.494Z,48
2018-12-11T17:47:12.890Z,46
2018-12-11T17:57:16.273Z,43
2018-12-11T18:07:19.699Z,41
2018-12-11T18:17:23.128Z,43
2018-12-11T18:27:26.550Z,44
2018-12-11T18:37:29.989Z,44
2018-12-11T18:47:33.416Z,44
2018-12-11T18:57:36.837Z,44
2018-12-11T19:07:40.263Z,44
2018-12-11T19:17:43.686Z,43
2018-12-11T19:27:47.134Z,44
2018-12-11T19:37:50.587Z,41
2018-12-11T19:47:54.017Z,42
2018-12-11T19:58:00.159Z,42
2018-12-11T20:08:03.599Z,41
2018-12-11T20:18:13.240Z,41
2018-12-11T20:28:16.675Z,43
2018-12-11T20:38:20.101Z,44
2018-12-11T20:48:23.541Z,45
2018-12-11T20:58:26.956Z,44
2018-12-11T21:08:30.460Z,44
2018-12-11T21:18:33.897Z,44
2018-12-11T21:28:37.322Z,43
2018-12-11T21:38:40.738Z,42
2018-12-11T21:48:44.192Z,41
2018-12-11T21:58:47.627Z,40
2018-12-11T22:08:51.042Z,41
2018-12-11T22:18:54.463Z,40
2018-12-11T22:28:57.903Z,40
2018-12-11T22:39:01.339Z,40
2018-12-11T22:49:04.786Z,40
2018-12-11T22:59:08.225Z,40
2018-12-11T23:09:11.651Z,39
2018-12-11T23:19:15.077Z,38
2018-12-11T23:29:18.503Z,39
2018-12-11T23:39:21.942Z,39
2018-12-11T23:49:25.402Z,38
2018-12-11T23:59:29.658Z,38
